Terminal Aerodrome Forecast
Issued by NWS

Home | Current Version | Previous Version | Text Only | Print | Product List | Glossary On
Versions: 1 2 3 4 5 6 7 8 9 10 11 12 13 14 15 16 17 18 19 20 21 22 23 24 25 26 27 28 29 30 31 32 33 34 35 36 37 38 39 40 41 42
224
FTUS44 KLIX 181738
TAFHDC
TAF
KHDC 181738Z 1818/1918 14006KT P6SM OVC009
     FM182200 14005KT P6SM BKN022
     FM190300 14006KT P6SM VCSH OVC008
      TEMPO 1903/1907 4SM TSRA BR OVC003CB
     FM190700 14006KT 2SM BR VCSH OVC008
      TEMPO 1910/1914 1SM TSRA OVC003CB
     FM191500 15007KT 3SM SHRA VCTS OVC010CB
     FM191545 20008KT P6SM SHRA VCTS OVC015CB=

USA.gov is the U.S. government's official web portal to all federal, state and local government web resources and services.